Time;durP1;ratioP1;P1;durP2;ratioP2;P2;SDS_P1;SDS_P2;PMS_P1;PMS_P2;Temp;Humidity;BMP_temperature;BMP_pressure;BME280_temperature;BME280_humidity;BME280_pressure;Samples;Min_cycle;Max_cycle;Signal;HPM_P1;HPM_P2
2021/09/03 00:02:16;;;;;;;2.53;1.77;;;;;;;19.56;59.37;101341.72;5014739;28;20088;-64
2021/09/03 00:04:42;;;;;;;5.80;2.13;;;;;;;19.51;60.04;101346.78;5015613;28;20080;-64
2021/09/03 00:07:08;;;;;;;3.45;2.05;;;;;;;19.46;60.63;101344.53;4996899;28;20025;-64
2021/09/03 00:09:34;;;;;;;4.05;1.77;;;;;;;19.41;60.20;101338.75;5014732;28;20467;-65
2021/09/03 00:11:59;;;;;;;4.03;1.80;;;;;;;19.40;60.46;101337.03;5014283;28;20109;-64
2021/09/03 00:14:24;;;;;;;3.83;1.70;;;;;;;19.42;60.63;101335.00;5014472;28;20029;-64
2021/09/03 00:16:50;;;;;;;2.42;1.77;;;;;;;19.42;60.70;101339.59;5014571;28;20056;-62
2021/09/03 00:19:15;;;;;;;3.58;1.83;;;;;;;19.39;59.97;101338.06;5014739;28;20072;-64
2021/09/03 00:21:40;;;;;;;3.75;1.80;;;;;;;19.40;59.98;101339.78;5014625;28;20030;-64
2021/09/03 00:24:06;;;;;;;3.90;2.30;;;;;;;19.46;60.11;101341.81;4996773;28;20029;-65
2021/09/03 00:26:31;;;;;;;4.30;1.95;;;;;;;19.41;59.99;101330.56;5015317;28;20126;-64
2021/09/03 00:28:57;;;;;;;5.10;1.92;;;;;;;19.42;60.27;101326.81;5013945;28;20022;-64
2021/09/03 00:31:22;;;;;;;4.68;1.73;;;;;;;19.40;60.22;101320.69;5014394;28;20029;-64
2021/09/03 00:33:47;;;;;;;3.47;1.60;;;;;;;19.32;60.56;101328.00;5015100;28;20038;-63
2021/09/03 00:36:13;;;;;;;3.25;1.85;;;;;;;19.36;60.18;101327.50;4996299;28;20030;-65
2021/09/03 00:38:38;;;;;;;2.28;1.60;;;;;;;19.36;60.48;101326.66;5014225;28;20417;-64
2021/09/03 00:41:03;;;;;;;2.88;1.77;;;;;;;19.32;59.59;101317.09;5023982;28;20393;-64
2021/09/03 00:43:29;;;;;;;3.83;1.73;;;;;;;19.35;60.87;101317.63;5033683;28;20028;-64
2021/09/03 00:45:56;;;;;;;3.90;1.50;;;;;;;19.29;60.12;101318.25;5033276;28;20112;-64
2021/09/03 00:48:21;;;;;;;1.55;1.33;;;;;;;19.26;60.57;101321.31;5034096;28;20027;-64
2021/09/03 00:50:47;;;;;;;4.07;2.10;;;;;;;19.31;59.87;101320.81;5033735;28;20022;-64
2021/09/03 00:53:13;;;;;;;3.65;1.83;;;;;;;19.31;60.55;101320.81;5033675;28;20052;-64
2021/09/03 00:55:39;;;;;;;3.28;1.77;;;;;;;19.31;59.98;101321.66;5033638;28;20037;-64
2021/09/03 00:58:04;;;;;;;3.40;1.42;;;;;;;19.32;60.18;101323.41;5033435;28;20021;-63
2021/09/03 01:00:29;;;;;;;3.15;1.48;;;;;;;19.28;60.27;101322.00;5033835;28;20108;-62
2021/09/03 01:02:55;;;;;;;4.03;1.85;;;;;;;19.28;60.47;101310.25;5033886;28;20378;-64
2021/09/03 01:05:23;;;;;;;2.88;1.55;;;;;;;19.29;59.93;101318.25;5033145;28;20029;-64
2021/09/03 01:07:50;;;;;;;3.25;1.40;;;;;;;19.23;60.19;101319.78;5033008;28;20018;-64
2021/09/03 01:10:19;;;;;;;4.20;1.60;;;;;;;19.31;61.46;101316.22;5033291;28;20573;-63
2021/09/03 01:12:45;;;;;;;3.90;1.95;;;;;;;19.19;60.53;101314.84;5033361;28;20421;-63
2021/09/03 01:15:10;;;;;;;4.00;1.90;;;;;;;19.18;60.82;101315.84;5033201;28;20466;-64
2021/09/03 01:17:37;;;;;;;3.25;1.38;;;;;;;19.21;60.67;101315.53;5017313;28;20032;-61
2021/09/03 01:20:05;;;;;;;3.03;1.40;;;;;;;19.22;60.37;101311.78;5033266;28;20029;-64
2021/09/03 01:22:30;;;;;;;2.03;1.27;;;;;;;19.20;59.78;101308.38;5033283;28;20025;-64
2021/09/03 01:24:56;;;;;;;3.83;1.30;;;;;;;19.24;59.98;101307.00;5032823;28;20352;-65
2021/09/03 01:27:21;;;;;;;3.15;1.23;;;;;;;19.23;60.09;101292.53;5033076;28;20046;-64
2021/09/03 01:29:46;;;;;;;1.63;0.90;;;;;;;19.18;60.62;101283.16;5033032;28;20022;-63
2021/09/03 01:32:12;;;;;;;5.10;1.65;;;;;;;19.10;61.13;101280.38;5032741;28;20070;-64
2021/09/03 01:34:37;;;;;;;6.43;1.98;;;;;;;19.19;60.05;101284.84;5033437;28;20033;-64
2021/09/03 01:37:03;;;;;;;1.98;1.30;;;;;;;19.23;60.19;101280.78;5032851;28;20425;-65
2021/09/03 01:39:28;;;;;;;4.57;1.52;;;;;;;19.21;61.41;101274.63;5032925;28;20458;-64
2021/09/03 01:41:53;;;;;;;4.90;1.52;;;;;;;19.22;60.77;101279.06;5032954;28;20025;-64
2021/09/03 01:44:19;;;;;;;2.25;1.40;;;;;;;19.16;61.26;101269.69;5033336;28;20033;-64
2021/09/03 01:46:44;;;;;;;4.28;1.38;;;;;;;19.11;61.28;101271.19;5032519;28;20028;-64
2021/09/03 01:49:09;;;;;;;2.95;1.33;;;;;;;19.21;61.28;101269.19;5033222;28;20056;-64
2021/09/03 01:51:34;;;;;;;3.00;1.33;;;;;;;19.18;60.76;101266.78;5032875;28;20021;-64
2021/09/03 01:54:00;;;;;;;1.98;1.33;;;;;;;19.21;60.98;101261.84;5014721;28;20030;-64
2021/09/03 01:56:25;;;;;;;2.13;1.17;;;;;;;19.18;61.41;101273.09;5032869;28;20063;-64
2021/09/03 01:58:50;;;;;;;3.22;1.33;;;;;;;19.14;60.80;101265.41;5032497;28;20049;-64
2021/09/03 02:01:16;;;;;;;2.22;1.35;;;;;;;19.15;61.68;101258.97;5032727;28;20029;-63
2021/09/03 02:03:41;;;;;;;2.00;1.30;;;;;;;19.22;60.26;101251.81;5032340;28;20076;-63
2021/09/03 02:06:07;;;;;;;2.33;1.30;;;;;;;19.23;61.04;101256.25;5032866;28;20025;-63
2021/09/03 02:08:32;;;;;;;2.83;1.35;;;;;;;19.14;62.28;101249.03;5032751;28;20030;-64
2021/09/03 02:10:57;;;;;;;1.48;1.20;;;;;;;19.17;61.21;101243.28;5033481;28;20029;-64
2021/09/03 02:13:23;;;;;;;2.85;1.38;;;;;;;19.21;61.38;101250.09;5032398;28;20405;-63
2021/09/03 02:15:49;;;;;;;2.33;1.00;;;;;;;19.20;61.31;101242.94;5032156;28;20059;-64
2021/09/03 02:18:14;;;;;;;3.10;1.50;;;;;;;19.16;60.70;101247.88;5034768;28;20030;-64
2021/09/03 02:20:40;;;;;;;2.03;1.13;;;;;;;19.20;61.19;101242.94;5036638;28;20103;-62
2021/09/03 02:23:05;;;;;;;2.72;1.48;;;;;;;19.21;60.92;101250.09;5036635;28;20029;-64
2021/09/03 02:25:30;;;;;;;3.22;1.30;;;;;;;19.23;61.24;101253.50;5036555;28;20127;-64
2021/09/03 02:27:56;;;;;;;2.20;1.05;;;;;;;19.21;61.96;101247.38;5036183;28;20018;-64
2021/09/03 02:30:21;;;;;;;3.35;1.33;;;;;;;19.18;60.92;101245.00;5018538;28;20047;-64
2021/09/03 02:32:46;;;;;;;5.70;1.30;;;;;;;19.18;60.73;101231.38;5036668;28;20072;-64
2021/09/03 02:35:12;;;;;;;2.53;0.88;;;;;;;19.14;61.69;101243.59;5036041;28;20441;-64
2021/09/03 02:37:37;;;;;;;3.78;1.73;;;;;;;19.14;60.89;101240.88;5036436;28;20017;-62
2021/09/03 02:40:04;;;;;;;2.42;1.20;;;;;;;19.18;61.50;101242.25;5034850;28;20030;-65
2021/09/03 02:42:30;;;;;;;1.70;0.90;;;;;;;19.18;61.24;101234.09;5016209;28;20040;-65
2021/09/03 02:44:55;;;;;;;4.00;1.30;;;;;;;19.18;61.76;101228.63;5016085;28;20113;-65
2021/09/03 02:47:20;;;;;;;2.17;0.70;;;;;;;19.14;61.83;101232.69;5016171;28;20037;-65
2021/09/03 02:49:46;;;;;;;1.88;1.08;;;;;;;19.07;61.30;101237.13;4998367;28;20026;-65
2021/09/03 02:52:11;;;;;;;2.70;1.67;;;;;;;19.05;61.25;101173.75;5015732;28;20101;-64
2021/09/03 02:54:36;;;;;;;2.20;1.23;;;;;;;19.16;61.32;101173.44;5016225;28;20029;-65
2021/09/03 02:57:02;;;;;;;2.63;0.90;;;;;;;19.21;63.14;101173.78;5018135;28;20034;-64
2021/09/03 02:59:27;;;;;;;1.48;0.80;;;;;;;19.19;62.78;101230.34;5015621;28;20049;-65
2021/09/03 03:01:52;;;;;;;1.50;0.90;;;;;;;19.09;64.16;101246.84;5015975;28;20065;-64
2021/09/03 03:04:18;;;;;;;1.70;0.80;;;;;;;19.13;61.72;101225.53;5015761;28;20030;-65
2021/09/03 03:06:43;;;;;;;2.30;1.52;;;;;;;19.10;61.78;101231.34;5015976;28;20489;-65
2021/09/03 03:09:08;;;;;;;2.65;1.25;;;;;;;19.16;61.50;101236.13;5015907;28;20475;-65
2021/09/03 03:11:34;;;;;;;1.50;1.00;;;;;;;19.09;61.90;101229.63;5016243;28;20106;-65
2021/09/03 03:14:16;;;;;;;2.58;1.30;;;;;;;19.13;62.11;101214.63;5015608;28;20474;-65
2021/09/03 03:16:41;;;;;;;3.38;1.00;;;;;;;19.13;62.53;101214.63;5015180;28;20048;-64
2021/09/03 03:19:06;;;;;;;1.27;0.90;;;;;;;19.04;62.48;101221.09;5015244;28;20600;-65
2021/09/03 03:21:32;;;;;;;1.55;0.88;;;;;;;19.12;62.13;101229.28;5015737;28;20645;-65
2021/09/03 03:23:57;;;;;;;2.40;0.80;;;;;;;19.09;61.71;101213.28;5015409;28;20030;-64
2021/09/03 03:26:22;;;;;;;2.25;1.45;;;;;;;19.17;61.80;101211.44;5015946;28;20120;-64
2021/09/03 03:28:48;;;;;;;1.13;0.88;;;;;;;19.15;61.98;101218.06;4997587;28;20018;-65
2021/09/03 03:31:13;;;;;;;1.13;0.93;;;;;;;19.13;62.08;101220.09;5015170;28;20485;-65
2021/09/03 03:33:38;;;;;;;3.30;1.40;;;;;;;19.12;62.44;101221.13;5015470;28;20026;-64
2021/09/03 03:36:04;;;;;;;5.03;1.42;;;;;;;19.13;62.02;101223.66;5015192;28;20026;-64
2021/09/03 03:38:30;;;;;;;1.33;0.70;;;;;;;19.13;62.28;101231.00;5015090;28;20383;-64
2021/09/03 03:40:55;;;;;;;1.27;0.63;;;;;;;19.16;62.19;101233.41;5025096;28;20024;-65
2021/09/03 03:43:20;;;;;;;1.92;0.80;;;;;;;19.13;62.79;101239.16;5034808;28;20026;-64
2021/09/03 03:45:46;;;;;;;3.10;0.93;;;;;;;19.10;62.84;101237.63;5034994;28;20033;-63
2021/09/03 03:48:11;;;;;;;0.55;0.45;;;;;;;19.09;62.96;101229.63;5037322;28;20063;-64
2021/09/03 03:50:36;;;;;;;3.03;0.70;;;;;;;19.12;63.08;101237.47;5035079;28;20026;-64
2021/09/03 03:53:02;;;;;;;1.50;0.77;;;;;;;19.18;63.08;101245.00;5034412;28;20653;-64
2021/09/03 03:55:27;;;;;;;3.05;1.42;;;;;;;19.12;63.57;101242.91;5034936;28;20398;-62
2021/09/03 03:57:52;;;;;;;2.10;0.70;;;;;;;19.14;63.31;101246.31;5035151;28;20048;-64
2021/09/03 04:00:19;;;;;;;2.15;0.60;;;;;;;19.14;63.94;101238.16;5034348;28;20053;-64
2021/09/03 04:02:44;;;;;;;3.40;0.93;;;;;;;19.65;61.55;101241.66;5034707;28;20124;-64
2021/09/03 04:05:09;;;;;;;2.55;0.63;;;;;;;19.96;60.83;101239.94;5034437;28;20032;-65
2021/09/03 04:07:35;;;;;;;0.63;0.40;;;;;;;20.19;60.04;101233.78;5034586;28;20060;-64
2021/09/03 04:10:00;;;;;;;0.82;0.60;;;;;;;20.30;61.54;101239.69;5034450;28;20025;-64
2021/09/03 04:12:25;;;;;;;0.60;0.50;;;;;;;20.47;60.75;101226.88;5017611;28;20500;-64
2021/09/03 04:14:51;;;;;;;1.13;0.50;;;;;;;20.61;60.13;101239.81;5034381;28;20017;-64
2021/09/03 04:17:16;;;;;;;1.38;0.40;;;;;;;20.73;60.04;101227.47;5034439;28;20442;-65
2021/09/03 04:19:41;;;;;;;1.33;0.40;;;;;;;20.71;61.37;101237.72;5034481;28;20036;-65
2021/09/03 04:22:07;;;;;;;0.95;0.30;;;;;;;20.90;60.65;101233.69;5034102;28;20017;-63
2021/09/03 04:24:32;;;;;;;0.73;0.40;;;;;;;20.94;60.40;101248.72;5022747;28;20474;-64
2021/09/03 04:26:59;;;;;;;1.75;0.30;;;;;;;20.97;60.44;101256.53;5018015;28;20374;-62
2021/09/03 04:29:25;;;;;;;0.60;0.30;;;;;;;21.00;61.56;101271.75;5025601;28;20017;-64
2021/09/03 04:31:50;;;;;;;1.45;0.40;;;;;;;21.03;61.42;101276.88;5033654;28;20484;-64
2021/09/03 04:34:15;;;;;;;1.60;0.40;;;;;;;21.07;60.98;101272.72;5031532;28;20025;-64
2021/09/03 04:36:40;;;;;;;0.75;0.40;;;;;;;21.10;61.58;101275.09;5019624;28;20024;-65
2021/09/03 04:39:06;;;;;;;1.52;0.60;;;;;;;21.11;61.76;101274.06;5024693;28;20026;-64
2021/09/03 04:41:32;;;;;;;0.45;0.30;;;;;;;21.16;61.68;101282.59;5030668;28;20036;-64
2021/09/03 04:43:57;;;;;;;0.60;0.50;;;;;;;21.17;62.34;101289.78;5028127;28;20386;-62
2021/09/03 04:46:23;;;;;;;1.38;0.40;;;;;;;21.16;62.33;101296.25;5033887;28;20028;-63
2021/09/03 04:48:48;;;;;;;1.45;0.50;;;;;;;21.20;62.76;101297.63;5033806;28;20410;-62
2021/09/03 04:51:14;;;;;;;0.60;0.40;;;;;;;21.24;62.22;101295.38;5033234;28;20028;-61
2021/09/03 04:53:40;;;;;;;0.85;0.40;;;;;;;21.25;63.08;101303.44;5032396;28;20029;-61
2021/09/03 04:56:05;;;;;;;1.13;0.30;;;;;;;21.27;63.46;101311.44;5032659;28;20037;-61
2021/09/03 04:58:31;;;;;;;1.45;0.60;;;;;;;21.24;63.85;101304.47;5032957;28;20021;-61
2021/09/03 05:00:56;;;;;;;0.80;0.40;;;;;;;21.24;63.61;101318.13;5011918;28;20033;-63
2021/09/03 05:03:21;;;;;;;1.38;0.50;;;;;;;21.29;63.71;101299.28;5001873;28;20022;-62
2021/09/03 05:05:47;;;;;;;1.30;0.30;;;;;;;21.36;63.85;101301.34;5032565;28;20489;-62
2021/09/03 05:08:33;;;;;;;1.88;0.70;;;;;;;21.35;62.73;101296.88;5037567;28;20033;-61
2021/09/03 05:10:59;;;;;;;0.50;0.20;;;;;;;21.37;63.51;101303.03;5015673;28;20136;-63
2021/09/03 05:13:25;;;;;;;0.60;0.20;;;;;;;21.39;63.90;101309.16;5025829;28;20036;-63
2021/09/03 05:15:51;;;;;;;0.80;0.50;;;;;;;21.38;63.82;101308.31;5031380;28;20029;-62
2021/09/03 05:18:16;;;;;;;2.28;0.70;;;;;;;21.35;64.68;101307.84;5032797;28;20632;-62
2021/09/03 05:20:42;;;;;;;2.10;0.80;;;;;;;21.30;63.91;101322.03;5031389;28;20096;-62
2021/09/03 05:23:07;;;;;;;2.97;0.75;;;;;;;21.28;63.40;101302.22;5014594;28;20035;-62
2021/09/03 05:25:33;;;;;;;2.88;0.75;;;;;;;21.21;63.65;101291.13;5010094;28;20033;-63
2021/09/03 05:27:58;;;;;;;2.97;0.85;;;;;;;21.20;63.42;101313.19;5032327;28;20057;-62
2021/09/03 05:30:24;;;;;;;1.30;0.50;;;;;;;21.16;63.27;101304.44;5032629;28;20025;-62
2021/09/03 05:32:49;;;;;;;1.40;0.30;;;;;;;21.20;63.04;101319.50;5026765;28;20049;-62
2021/09/03 05:35:15;;;;;;;1.90;0.80;;;;;;;21.23;63.67;101313.66;5029191;28;20668;-62
2021/09/03 05:37:40;;;;;;;0.70;0.43;;;;;;;21.32;63.16;101322.69;5034276;28;20029;-63
2021/09/03 05:40:07;;;;;;;2.70;0.63;;;;;;;21.25;65.13;101338.97;5010933;28;20026;-62
2021/09/03 05:42:32;;;;;;;1.67;0.70;;;;;;;21.25;64.41;101338.13;5030847;28;20036;-62
2021/09/03 05:44:58;;;;;;;1.48;0.68;;;;;;;21.25;63.67;101352.66;5032897;28;20026;-63
2021/09/03 05:47:23;;;;;;;2.28;0.65;;;;;;;21.24;63.23;101350.94;5032373;28;20087;-63
2021/09/03 05:49:49;;;;;;;1.35;0.57;;;;;;;21.20;63.82;101354.19;5031937;28;20030;-63
2021/09/03 05:52:14;;;;;;;2.90;0.40;;;;;;;21.27;63.91;101356.06;5035126;28;20488;-64
2021/09/03 05:54:39;;;;;;;1.05;0.47;;;;;;;21.28;64.01;101349.56;5035854;28;20072;-63
2021/09/03 05:57:05;;;;;;;0.98;0.60;;;;;;;21.25;63.06;101363.59;5036615;28;20504;-61
2021/09/03 05:59:31;;;;;;;1.38;0.68;;;;;;;21.25;64.43;101366.31;5035934;28;20085;-63
2021/09/03 06:01:57;;;;;;;1.85;0.50;;;;;;;21.26;63.79;101373.50;5036815;28;20025;-63
2021/09/03 06:04:44;;;;;;;1.65;0.40;;;;;;;21.25;64.50;101369.06;5031506;28;20026;-60
2021/09/03 06:07:09;;;;;;;1.42;0.50;;;;;;;21.31;64.24;101382.00;5019776;28;20029;-63
2021/09/03 06:09:34;;;;;;;1.13;0.50;;;;;;;21.31;63.49;101379.28;5026079;28;20029;-63
2021/09/03 06:12:00;;;;;;;1.48;0.30;;;;;;;21.25;63.78;101390.94;5036733;28;20105;-63
2021/09/03 06:14:25;;;;;;;1.60;0.38;;;;;;;21.24;64.14;101391.97;5036300;28;20029;-63
2021/09/03 06:16:51;;;;;;;1.75;0.32;;;;;;;21.25;64.82;101390.94;5035992;28;20466;-63
2021/09/03 06:19:17;;;;;;;5.32;1.02;;;;;;;21.22;64.60;101394.00;5036080;28;20545;-64
2021/09/03 06:21:42;;;;;;;2.28;0.73;;;;;;;21.21;64.15;101395.03;5035944;28;20257;-64
2021/09/03 06:24:27;;;;;;;3.63;0.50;;;;;;;21.20;63.88;101396.06;5036122;28;20059;-63
2021/09/03 06:26:54;;;;;;;4.00;0.70;;;;;;;21.18;63.68;101392.66;5032001;28;20037;-63
2021/09/03 06:32:26;;;;;;;2.78;0.95;;;;;;;21.25;64.52;101396.41;5022994;28;20053;-61
2021/09/03 06:34:51;;;;;;;3.05;1.02;;;;;;;21.22;64.29;101410.41;5031186;28;20029;-64
2021/09/03 06:37:17;;;;;;;2.33;0.80;;;;;;;21.21;64.03;101405.97;5036281;28;20160;-64
2021/09/03 06:39:42;;;;;;;1.90;0.43;;;;;;;21.23;64.47;101403.91;5028614;28;20079;-63
2021/09/03 06:42:09;;;;;;;2.67;0.57;;;;;;;21.22;64.18;101406.81;5035877;28;20029;-63
2021/09/03 06:44:37;;;;;;;2.13;0.82;;;;;;;21.20;64.36;101393.31;5037296;28;20021;-63
2021/09/03 06:47:04;;;;;;;1.63;0.30;;;;;;;21.26;63.75;101411.78;5035681;28;20124;-64
2021/09/03 06:49:30;;;;;;;1.63;0.60;;;;;;;21.29;63.76;101416.88;5035811;28;20029;-64
2021/09/03 06:51:56;;;;;;;2.47;0.68;;;;;;;21.26;64.24;101409.03;5035337;28;20028;-63
2021/09/03 06:54:22;;;;;;;1.45;0.38;;;;;;;21.24;64.11;101399.28;5035864;28;20372;-63
2021/09/03 06:56:47;;;;;;;0.82;0.40;;;;;;;21.25;63.62;101407.34;5014943;28;20062;-64
2021/09/03 06:59:13;;;;;;;2.17;0.50;;;;;;;21.22;64.04;101412.28;5023384;28;20045;-63
2021/09/03 07:01:38;;;;;;;3.72;0.68;;;;;;;21.29;63.50;101408.69;5036563;28;20034;-64
2021/09/03 07:04:03;;;;;;;0.73;0.30;;;;;;;21.26;64.79;101422.72;5033228;28;20071;-63
2021/09/03 07:06:29;;;;;;;1.92;0.40;;;;;;;21.24;64.09;101416.56;5035807;28;20508;-64
2021/09/03 07:08:54;;;;;;;0.30;0.30;;;;;;;21.22;64.80;101410.41;5032789;28;20033;-64
2021/09/03 07:11:20;;;;;;;2.63;0.85;;;;;;;21.30;64.26;101421.31;5016582;28;20128;-63
2021/09/03 07:13:45;;;;;;;1.42;0.30;;;;;;;21.30;63.97;101426.78;5030536;28;20026;-64
2021/09/03 07:16:11;;;;;;;2.83;0.63;;;;;;;21.34;64.36;101427.31;5021086;28;20026;-63
2021/09/03 07:18:36;;;;;;;1.38;0.43;;;;;;;21.31;64.35;101433.97;5030880;28;20033;-63
2021/09/03 07:21:02;;;;;;;2.00;0.52;;;;;;;21.29;64.55;101437.91;5030716;28;20422;-64
2021/09/03 07:23:27;;;;;;;1.17;0.52;;;;;;;21.37;64.68;101437.03;5015687;28;20044;-64
2021/09/03 07:25:52;;;;;;;2.10;0.50;;;;;;;21.25;65.17;101445.63;5016081;28;20029;-64
2021/09/03 07:28:18;;;;;;;2.20;0.70;;;;;;;21.26;64.91;101444.59;5029871;28;20041;-64
2021/09/03 07:30:43;;;;;;;2.95;0.63;;;;;;;21.33;64.38;101450.19;5024746;28;20120;-64
2021/09/03 07:33:09;;;;;;;0.70;0.35;;;;;;;21.31;64.78;101439.44;5029735;28;20033;-64
2021/09/03 07:35:34;;;;;;;1.73;0.30;;;;;;;21.34;64.30;101453.81;5009323;28;20021;-64
2021/09/03 07:37:59;;;;;;;1.92;0.40;;;;;;;21.31;65.07;101450.38;5025130;28;20013;-64
2021/09/03 07:40:27;;;;;;;1.42;0.40;;;;;;;21.36;65.05;101449.03;5009821;28;20052;-64
2021/09/03 07:42:53;;;;;;;2.70;0.70;;;;;;;21.37;64.40;101453.47;5033511;28;20018;-63
2021/09/03 07:45:18;;;;;;;1.52;0.65;;;;;;;21.31;64.28;101461.31;5025940;28;20466;-64
2021/09/03 07:47:43;;;;;;;1.15;0.40;;;;;;;21.28;64.09;101467.16;5033328;28;20025;-64
2021/09/03 07:50:09;;;;;;;2.20;0.43;;;;;;;21.34;64.95;101456.56;5033434;28;20029;-64
2021/09/03 07:52:34;;;;;;;1.83;0.52;;;;;;;21.28;65.16;101467.16;5025400;28;20101;-63
2021/09/03 07:55:00;;;;;;;1.50;0.57;;;;;;;21.43;64.52;101470.00;5021631;28;20045;-63
2021/09/03 07:57:25;;;;;;;2.60;0.50;;;;;;;21.39;64.06;101471.41;5021253;28;20024;-64
2021/09/03 07:59:50;;;;;;;2.53;0.73;;;;;;;21.40;65.50;101480.44;5020890;28;20113;-64
2021/09/03 08:02:16;;;;;;;0.73;0.30;;;;;;;21.41;64.47;101487.63;5029082;28;20390;-64
2021/09/03 08:04:41;;;;;;;1.60;0.50;;;;;;;21.36;64.20;101490.03;5034867;28;20040;-63
2021/09/03 08:07:06;;;;;;;0.73;0.45;;;;;;;21.39;64.56;101484.22;5035409;28;20075;-64
2021/09/03 08:09:32;;;;;;;1.45;0.50;;;;;;;21.32;64.88;101490.38;5017725;28;20052;-64
2021/09/03 08:11:57;;;;;;;2.13;0.45;;;;;;;21.37;64.98;101492.59;5033956;28;20030;-64
2021/09/03 08:14:23;;;;;;;2.08;0.65;;;;;;;21.38;65.30;101504.41;5030481;28;20029;-64
2021/09/03 08:16:48;;;;;;;1.42;0.50;;;;;;;21.39;65.05;101498.75;5032482;28;20398;-64
2021/09/03 08:19:13;;;;;;;4.53;0.70;;;;;;;21.39;64.63;101503.38;5017142;28;20033;-64
2021/09/03 08:21:39;;;;;;;2.63;0.50;;;;;;;21.39;65.76;101500.63;5022165;28;20013;-63
2021/09/03 08:24:04;;;;;;;3.22;0.60;;;;;;;21.39;64.93;101506.94;5034176;28;20029;-64
2021/09/03 08:26:30;;;;;;;0.98;0.47;;;;;;;21.46;64.51;101509.81;5033395;28;20033;-64
2021/09/03 08:28:56;;;;;;;2.08;0.77;;;;;;;21.43;64.61;101510.19;5033270;28;20056;-64
2021/09/03 08:31:23;;;;;;;1.52;0.50;;;;;;;21.49;64.72;101506.72;5033960;28;20032;-64
2021/09/03 08:33:48;;;;;;;3.25;0.73;;;;;;;21.41;65.54;101509.50;5031438;28;20017;-64
2021/09/03 08:36:13;;;;;;;2.67;0.63;;;;;;;21.38;64.85;101515.34;5036705;28;20052;-64
2021/09/03 08:38:39;;;;;;;1.25;0.40;;;;;;;21.46;65.14;101523.50;5034077;28;20167;-64
2021/09/03 08:41:04;;;;;;;1.50;0.40;;;;;;;21.50;65.32;101514.78;5032887;28;20045;-65
2021/09/03 08:43:29;;;;;;;1.50;0.52;;;;;;;21.44;64.05;101515.47;5033738;28;20379;-65
2021/09/03 08:45:56;;;;;;;2.88;0.55;;;;;;;21.47;64.82;101515.13;5033645;28;20044;-65
2021/09/03 08:48:23;;;;;;;1.55;0.40;;;;;;;21.39;64.56;101522.50;5033680;28;20021;-65
2021/09/03 08:50:54;;;;;;;1.20;0.45;;;;;;;21.47;64.66;101519.75;5026501;28;20051;-63
2021/09/03 08:53:21;;;;;;;1.40;0.50;;;;;;;21.40;65.46;101526.94;5023355;28;20497;-66
2021/09/03 08:55:51;;;;;;;1.38;0.50;;;;;;;21.46;65.02;101518.03;5025399;28;20471;-66
2021/09/03 08:58:16;;;;;;;1.98;0.57;;;;;;;21.51;64.05;101540.28;5029172;28;20032;-66
2021/09/03 09:00:43;;;;;;;1.80;0.40;;;;;;;21.51;64.88;101537.53;5022717;28;20385;-67
2021/09/03 09:03:14;;;;;;;1.25;0.38;;;;;;;21.50;65.67;101535.78;5028064;28;20442;-66
2021/09/03 09:05:57;;;;;;;1.38;0.35;;;;;;;21.42;65.65;101546.78;5037613;28;20017;-66
2021/09/03 09:08:29;;;;;;;1.83;0.50;;;;;;;21.42;64.87;101554.97;5021286;28;20036;-66
2021/09/03 09:11:03;;;;;;;1.60;0.60;;;;;;;21.44;65.81;101547.44;5033392;28;20110;-66
2021/09/03 09:13:34;;;;;;;1.10;0.35;;;;;;;21.46;64.87;101546.25;5033138;28;20029;-66
2021/09/03 09:16:16;;;;;;;0.50;0.28;;;;;;;21.50;65.02;101547.63;5033190;28;20033;-67
2021/09/03 09:18:46;;;;;;;4.15;0.80;;;;;;;21.44;65.22;101550.19;5015416;28;20063;-65
2021/09/03 09:21:31;;;;;;;2.30;0.57;;;;;;;21.45;64.46;101550.00;5024786;28;20029;-65
2021/09/03 09:24:08;;;;;;;1.00;0.50;;;;;;;21.38;64.75;101546.28;5025162;28;20033;-67
2021/09/03 09:26:50;;;;;;;1.70;0.63;;;;;;;21.56;64.57;101557.84;5014768;28;20424;-67
2021/09/03 09:29:22;;;;;;;1.65;0.52;;;;;;;21.45;65.12;101560.09;5031665;28;20104;-66
2021/09/03 09:31:51;;;;;;;3.80;0.47;;;;;;;21.47;66.06;101552.56;5026354;28;20030;-66
2021/09/03 09:34:30;;;;;;;1.65;0.50;;;;;;;21.49;64.90;101558.72;5013667;28;20068;-67
2021/09/03 09:37:00;;;;;;;0.60;0.17;;;;;;;21.49;65.20;101569.66;5018274;28;20060;-69
2021/09/03 09:39:25;;;;;;;1.55;0.63;;;;;;;21.46;65.55;101559.91;5032176;28;20378;-69
2021/09/03 09:42:03;;;;;;;3.53;0.80;;;;;;;21.50;65.35;101563.16;5027289;28;20022;-69
2021/09/03 09:44:34;;;;;;;1.83;0.40;;;;;;;21.56;65.13;101567.94;5025730;28;20060;-68
2021/09/03 09:47:07;;;;;;;0.95;0.40;;;;;;;21.53;65.31;101568.31;5013087;28;20025;-69
2021/09/03 09:49:33;;;;;;;1.58;0.45;;;;;;;21.50;65.06;101574.97;5013374;28;20057;-68
2021/09/03 09:51:59;;;;;;;1.60;0.50;;;;;;;21.51;65.18;101564.88;5020660;28;20053;-69
2021/09/03 09:54:26;;;;;;;3.10;0.50;;;;;;;21.51;64.58;101570.38;5032959;28;20526;-69
2021/09/03 09:56:55;;;;;;;1.02;0.60;;;;;;;21.49;64.82;101584.19;5032811;28;20029;-68
2021/09/03 09:59:22;;;;;;;1.27;0.35;;;;;;;21.49;64.35;101583.34;5032213;28;20096;-68
2021/09/03 10:01:50;;;;;;;2.65;0.63;;;;;;;21.46;64.98;101572.75;5032121;28;20044;-68
2021/09/03 10:04:17;;;;;;;0.88;0.30;;;;;;;21.52;65.35;101586.59;5017895;28;20021;-69
2021/09/03 10:06:45;;;;;;;1.15;0.40;;;;;;;21.51;65.76;101586.78;5012579;28;20029;-69
2021/09/03 10:09:14;;;;;;;1.20;0.50;;;;;;;21.56;65.38;101596.16;5012624;28;20026;-68
2021/09/03 10:11:42;;;;;;;1.55;0.50;;;;;;;21.52;65.22;101597.53;5013936;28;20030;-68
2021/09/03 10:14:09;;;;;;;5.82;1.23;;;;;;;21.57;65.20;101597.00;5012787;28;20026;-68
2021/09/03 10:16:35;;;;;;;1.70;0.60;;;;;;;21.63;65.55;101609.97;4995416;28;20028;-68
2021/09/03 10:19:03;;;;;;;1.20;0.60;;;;;;;21.54;66.12;101608.31;5012698;28;20100;-68
2021/09/03 10:21:31;;;;;;;2.38;0.85;;;;;;;21.58;65.18;101610.50;4999872;28;20513;-68
2021/09/03 10:24:04;;;;;;;0.82;0.30;;;;;;;21.53;65.35;101604.72;5012832;28;20026;-69
2021/09/03 10:26:33;;;;;;;0.90;0.20;;;;;;;21.53;65.73;101606.59;5015035;28;20108;-70
2021/09/03 10:29:22;;;;;;;1.60;0.68;;;;;;;21.58;64.85;101605.03;4994964;28;20022;-68
2021/09/03 10:32:05;;;;;;;2.55;1.00;;;;;;;21.55;65.19;101610.03;5012952;28;20037;-68
2021/09/03 10:34:43;;;;;;;0.30;0.10;;;;;;;21.55;64.79;101604.53;5012970;28;20032;-68
2021/09/03 10:37:14;;;;;;;1.85;0.52;;;;;;;21.58;65.07;101609.66;5012706;28;20498;-69
2021/09/03 10:39:51;;;;;;;1.58;0.40;;;;;;;21.55;65.78;101610.03;4998482;28;20040;-69
2021/09/03 10:42:38;;;;;;;1.77;0.57;;;;;;;21.59;65.43;101616.84;5019672;28;20478;-68
2021/09/03 10:45:08;;;;;;;1.63;0.55;;;;;;;21.59;66.08;101611.38;5016288;28;20076;-69
2021/09/03 10:47:46;;;;;;;0.98;0.30;;;;;;;21.61;65.66;101620.25;5032676;28;20030;-69
2021/09/03 10:50:23;;;;;;;1.17;0.40;;;;;;;21.57;65.52;101618.91;5015004;28;20561;-68
2021/09/03 10:53:07;;;;;;;0.93;0.50;;;;;;;21.59;64.50;101625.06;5016214;28;20034;-68
2021/09/03 10:55:54;;;;;;;1.67;0.43;;;;;;;21.65;65.92;101609.81;5016366;28;20026;-69
2021/09/03 10:58:37;;;;;;;2.28;0.30;;;;;;;21.55;65.77;101627.28;5019234;28;20401;-68
2021/09/03 11:01:11;;;;;;;2.50;0.52;;;;;;;21.59;65.34;101625.06;5016049;28;20133;-69
2021/09/03 11:03:44;;;;;;;;;;;;;;;21.59;65.12;101627.78;5016347;28;20029;-69
2021/09/03 11:06:33;;;;;;;1.02;0.50;;;;;;;21.58;64.54;101631.56;5015903;28;19964;-69
2021/09/03 11:09:16;;;;;;;0.82;0.30;;;;;;;21.57;64.90;101624.38;5015962;28;20026;-69
2021/09/03 11:11:53;;;;;;;0.93;0.30;;;;;;;21.58;65.49;101626.06;5031708;28;20140;-68
2021/09/03 11:14:29;;;;;;;1.00;0.30;;;;;;;21.55;65.77;101627.28;5050073;28;20021;-69
2021/09/03 11:16:58;;;;;;;1.05;0.43;;;;;;;21.54;65.83;101630.19;5034091;28;20036;-70
2021/09/03 11:19:32;;;;;;;0.98;0.40;;;;;;;21.58;65.96;101623.34;5034905;28;20033;-69
2021/09/03 11:22:07;;;;;;;1.25;0.52;;;;;;;21.55;65.48;101637.38;5035200;28;20029;-66
2021/09/03 11:25:00;;;;;;;2.15;1.05;;;;;;;21.67;66.90;101630.53;5035133;28;20148;-68
2021/09/03 11:27:27;;;;;;;3.35;2.42;;;;;;;21.72;66.96;101633.59;5030351;28;20120;-69
2021/09/03 11:29:57;;;;;;;4.55;3.05;;;;;;;21.81;66.39;101629.78;5034947;28;20025;-68